Perrysburg, NY

9:36 AM EST on November 22, 2014 (GMT -0500)
KNYIRVIN2 | Change Station
CLOSE
Current Station
Personal Weather Station
Location: Irving, NY
Elevation: 587 ft
Nearby Weather Stations

Elev 587 ft 42.56 °N, 79.14 °W | Updated 10 seconds ago

Overcast
Overcast
33.9 °F
Feels Like 28 °F
N
7.1
Wind Variable Wind from SSW
Gusts 7.1 mph

Today
High -- | Low -- °F
--% Chance of Precip.
Yesterday
High -- | Low -- °F
Precip. -- in
7:15 AM 4:48 PM
New Moon, 0% visible
Pressure 30.21 in
Visibility 8.0 miles
Clouds Mostly Cloudy 4700 ft
Windchill 28 °F
Dew Point 19 °F
Humidity 54%
Rainfall 0.00 in
Snow Depth Not available.
UV 0 out of 12
Pollen .10 out of 12
Air Quality Not available.
Flu Activity Not available.
METAR KDKK 221353Z AUTO 18020G29KT 8SM BKN047 M02/M11 A3018 RMK AO2 PK WND 20031/1321 SLP230 T10171106

More Conditions Fewer Conditions

Pressure 30.21 in
Visibility 8.0 miles
Clouds Mostly Cloudy 4700 ft
Windchill 28 °F
Dew Point 19 °F
Humidity 54%
Rainfall 0.00 in
Snow Depth Not available.
UV 0 out of 12
Pollen .10 out of 12
Air Quality Not available.
Flu Activity Not available.
METAR KDKK 221353Z AUTO 18020G29KT 8SM BKN047 M02/M11 A3018 RMK AO2 PK WND 20031/1321 SLP230 T10171106

More Conditions Fewer Conditions

10-Day Weather Forecast

Almanac

Astronomy

Nov. 22, 2014 Rise Set
Actual Time
Civil Twilight
Nautical Twilight
Astronomical Twilight
Moon
Length of Visible Light
Length of Day
Tomorrow will be .
, % of the Moon is Illuminated

Today's Extremes

State Highs State Lows

Community

WunderPhotos

Upload Photos

1,772,821 photos uploaded!

WunderBlogs® & News

Nearby

Air Quality

  Air Quality AQ Index Pollutant
Not available.

Snow Depth

Station Depth Elevation

Earthquake Activity

City Distance Mag. Time & Date
Minimum magnitude displayed is 2.5.

Coastal Water Temperatures

Place Temperature

Nearby Weather Stations